sensor_id;sensor_type;location;lat;lon;timestamp;temperature;humidity
29341;DHT22;16337;59.536;13.468;2023-10-13T00:00:28;1.70;99.90
29341;DHT22;16337;59.536;13.468;2023-10-13T00:03:06;1.60;99.90
29341;DHT22;16337;59.536;13.468;2023-10-13T00:05:35;1.60;99.90
29341;DHT22;16337;59.536;13.468;2023-10-13T00:08:02;1.60;99.90
29341;DHT22;16337;59.536;13.468;2023-10-13T00:10:48;1.60;99.90
29341;DHT22;16337;59.536;13.468;2023-10-13T00:13:19;1.70;99.90
29341;DHT22;16337;59.536;13.468;2023-10-13T00:15:47;1.70;99.90
29341;DHT22;16337;59.536;13.468;2023-10-13T00:18:31;1.70;99.90
29341;DHT22;16337;59.536;13.468;2023-10-13T00:21:06;1.70;99.90
29341;DHT22;16337;59.536;13.468;2023-10-13T00:23:38;1.60;99.90
29341;DHT22;16337;59.536;13.468;2023-10-13T00:26:04;1.60;99.90
29341;DHT22;16337;59.536;13.468;2023-10-13T00:28:37;1.60;99.90
29341;DHT22;16337;59.536;13.468;2023-10-13T00:31:12;1.60;99.90
29341;DHT22;16337;59.536;13.468;2023-10-13T00:33:40;1.60;99.90
29341;DHT22;16337;59.536;13.468;2023-10-13T00:36:17;1.60;99.90
29341;DHT22;16337;59.536;13.468;2023-10-13T00:38:45;1.50;99.90
29341;DHT22;16337;59.536;13.468;2023-10-13T00:41:14;1.50;99.90
29341;DHT22;16337;59.536;13.468;2023-10-13T00:43:46;1.50;99.90
29341;DHT22;16337;59.536;13.468;2023-10-13T00:46:31;1.50;99.90
29341;DHT22;16337;59.536;13.468;2023-10-13T00:49:03;1.50;99.90
29341;DHT22;16337;59.536;13.468;2023-10-13T00:51:37;1.50;99.90
29341;DHT22;16337;59.536;13.468;2023-10-13T00:54:26;1.50;99.90
29341;DHT22;16337;59.536;13.468;2023-10-13T00:56:53;1.50;99.90
29341;DHT22;16337;59.536;13.468;2023-10-13T00:59:30;1.40;99.90
29341;DHT22;16337;59.536;13.468;2023-10-13T01:02:07;1.40;99.90
29341;DHT22;16337;59.536;13.468;2023-10-13T01:04:56;1.40;99.90
29341;DHT22;16337;59.536;13.468;2023-10-13T01:07:22;1.40;99.90
29341;DHT22;16337;59.536;13.468;2023-10-13T01:09:48;1.30;99.90
29341;DHT22;16337;59.536;13.468;2023-10-13T01:12:14;1.30;99.90
29341;DHT22;16337;59.536;13.468;2023-10-13T01:14:40;1.30;99.90
29341;DHT22;16337;59.536;13.468;2023-10-13T01:17:05;1.30;99.90
29341;DHT22;16337;59.536;13.468;2023-10-13T01:19:36;1.30;99.90
29341;DHT22;16337;59.536;13.468;2023-10-13T01:22:04;1.20;99.90
29341;DHT22;16337;59.536;13.468;2023-10-13T01:24:32;1.20;99.90
29341;DHT22;16337;59.536;13.468;2023-10-13T01:27:01;1.20;99.90
29341;DHT22;16337;59.536;13.468;2023-10-13T01:29:45;1.20;99.90
29341;DHT22;16337;59.536;13.468;2023-10-13T01:32:19;1.20;99.90
29341;DHT22;16337;59.536;13.468;2023-10-13T01:34:45;1.20;99.90
29341;DHT22;16337;59.536;13.468;2023-10-13T01:37:12;1.20;99.90
29341;DHT22;16337;59.536;13.468;2023-10-13T01:39:38;1.20;99.90
29341;DHT22;16337;59.536;13.468;2023-10-13T01:42:04;1.10;99.90
29341;DHT22;16337;59.536;13.468;2023-10-13T01:44:31;1.10;99.90
29341;DHT22;16337;59.536;13.468;2023-10-13T01:46:58;1.10;99.90
29341;DHT22;16337;59.536;13.468;2023-10-13T01:49:32;1.10;99.90
29341;DHT22;16337;59.536;13.468;2023-10-13T01:52:15;1.10;99.90
29341;DHT22;16337;59.536;13.468;2023-10-13T01:54:46;1.10;99.90
29341;DHT22;16337;59.536;13.468;2023-10-13T01:57:14;1.10;99.90
29341;DHT22;16337;59.536;13.468;2023-10-13T01:59:44;1.00;99.90
29341;DHT22;16337;59.536;13.468;2023-10-13T02:02:13;1.00;99.90
29341;DHT22;16337;59.536;13.468;2023-10-13T02:04:43;1.10;99.90
29341;DHT22;16337;59.536;13.468;2023-10-13T02:07:17;1.10;99.90
29341;DHT22;16337;59.536;13.468;2023-10-13T02:09:43;1.00;99.90
29341;DHT22;16337;59.536;13.468;2023-10-13T02:12:09;0.90;99.90
29341;DHT22;16337;59.536;13.468;2023-10-13T02:14:36;0.90;99.90
29341;DHT22;16337;59.536;13.468;2023-10-13T02:17:05;0.80;99.90
29341;DHT22;16337;59.536;13.468;2023-10-13T02:19:42;0.80;99.90
29341;DHT22;16337;59.536;13.468;2023-10-13T02:22:11;0.90;99.90
29341;DHT22;16337;59.536;13.468;2023-10-13T02:24:37;0.80;99.90
29341;DHT22;16337;59.536;13.468;2023-10-13T02:27:08;0.90;99.90
29341;DHT22;16337;59.536;13.468;2023-10-13T02:29:40;0.90;99.90
29341;DHT22;16337;59.536;13.468;2023-10-13T02:32:06;0.90;99.90
29341;DHT22;16337;59.536;13.468;2023-10-13T02:35:05;0.90;99.90
29341;DHT22;16337;59.536;13.468;2023-10-13T02:37:33;0.90;99.90
29341;DHT22;16337;59.536;13.468;2023-10-13T02:40:01;0.80;99.90
29341;DHT22;16337;59.536;13.468;2023-10-13T02:42:26;0.80;99.90
29341;DHT22;16337;59.536;13.468;2023-10-13T02:44:52;0.70;99.90
29341;DHT22;16337;59.536;13.468;2023-10-13T02:47:26;0.70;99.90
29341;DHT22;16337;59.536;13.468;2023-10-13T02:49:52;0.70;99.90
29341;DHT22;16337;59.536;13.468;2023-10-13T02:52:17;0.70;99.90
29341;DHT22;16337;59.536;13.468;2023-10-13T02:54:43;0.80;99.90
29341;DHT22;16337;59.536;13.468;2023-10-13T02:57:18;0.80;99.90
29341;DHT22;16337;59.536;13.468;2023-10-13T02:59:44;0.80;99.90
29341;DHT22;16337;59.536;13.468;2023-10-13T03:02:14;0.80;99.90
29341;DHT22;16337;59.536;13.468;2023-10-13T03:04:56;0.80;99.90
29341;DHT22;16337;59.536;13.468;2023-10-13T03:07:26;0.80;99.90
29341;DHT22;16337;59.536;13.468;2023-10-13T03:09:58;0.70;99.90
29341;DHT22;16337;59.536;13.468;2023-10-13T03:12:26;0.70;99.90
29341;DHT22;16337;59.536;13.468;2023-10-13T03:14:58;0.70;99.90
29341;DHT22;16337;59.536;13.468;2023-10-13T03:17:37;0.80;99.90
29341;DHT22;16337;59.536;13.468;2023-10-13T03:20:07;0.80;99.90
29341;DHT22;16337;59.536;13.468;2023-10-13T03:22:33;0.80;99.90
29341;DHT22;16337;59.536;13.468;2023-10-13T03:24:59;0.70;99.90
29341;DHT22;16337;59.536;13.468;2023-10-13T03:27:31;0.70;99.90
29341;DHT22;16337;59.536;13.468;2023-10-13T03:30:26;0.70;99.90
29341;DHT22;16337;59.536;13.468;2023-10-13T03:33:05;0.70;99.90
29341;DHT22;16337;59.536;13.468;2023-10-13T03:35:51;0.60;99.90
29341;DHT22;16337;59.536;13.468;2023-10-13T03:38:20;0.60;99.90
29341;DHT22;16337;59.536;13.468;2023-10-13T03:40:49;0.50;99.90
29341;DHT22;16337;59.536;13.468;2023-10-13T03:43:22;0.40;99.90
29341;DHT22;16337;59.536;13.468;2023-10-13T03:45:49;0.40;99.90
29341;DHT22;16337;59.536;13.468;2023-10-13T03:48:33;0.40;99.90
29341;DHT22;16337;59.536;13.468;2023-10-13T03:51:16;0.30;99.90
29341;DHT22;16337;59.536;13.468;2023-10-13T03:53:42;0.30;99.90
29341;DHT22;16337;59.536;13.468;2023-10-13T03:56:26;0.30;99.90
29341;DHT22;16337;59.536;13.468;2023-10-13T03:58:54;0.20;99.90
29341;DHT22;16337;59.536;13.468;2023-10-13T04:01:26;0.20;99.90
29341;DHT22;16337;59.536;13.468;2023-10-13T04:04:00;0.20;99.90
29341;DHT22;16337;59.536;13.468;2023-10-13T04:06:35;0.20;99.90
29341;DHT22;16337;59.536;13.468;2023-10-13T04:09:20;0.20;99.90
29341;DHT22;16337;59.536;13.468;2023-10-13T04:12:06;0.20;99.90
29341;DHT22;16337;59.536;13.468;2023-10-13T04:14:44;0.20;99.90
29341;DHT22;16337;59.536;13.468;2023-10-13T04:17:31;0.20;99.90
29341;DHT22;16337;59.536;13.468;2023-10-13T04:20:08;0.20;99.90
29341;DHT22;16337;59.536;13.468;2023-10-13T04:22:44;0.10;99.90
29341;DHT22;16337;59.536;13.468;2023-10-13T04:25:21;0.10;99.90
29341;DHT22;16337;59.536;13.468;2023-10-13T04:28:07;0.10;99.90
29341;DHT22;16337;59.536;13.468;2023-10-13T04:30:42;0.00;99.90
29341;DHT22;16337;59.536;13.468;2023-10-13T04:33:31;0.00;99.90
29341;DHT22;16337;59.536;13.468;2023-10-13T04:38:52;0.00;99.90
29341;DHT22;16337;59.536;13.468;2023-10-13T04:41:36;0.00;99.90
29341;DHT22;16337;59.536;13.468;2023-10-13T04:44:24;-0.10;99.90
29341;DHT22;16337;59.536;13.468;2023-10-13T04:46:56;-0.10;99.90
29341;DHT22;16337;59.536;13.468;2023-10-13T04:49:26;-0.10;99.90
29341;DHT22;16337;59.536;13.468;2023-10-13T04:51:53;0.00;99.90
29341;DHT22;16337;59.536;13.468;2023-10-13T04:54:28;0.00;99.90
29341;DHT22;16337;59.536;13.468;2023-10-13T04:57:15;0.10;99.90
29341;DHT22;16337;59.536;13.468;2023-10-13T05:00:01;0.20;99.90
29341;DHT22;16337;59.536;13.468;2023-10-13T05:02:38;0.20;99.90
29341;DHT22;16337;59.536;13.468;2023-10-13T05:05:14;0.20;99.90
29341;DHT22;16337;59.536;13.468;2023-10-13T05:07:40;0.20;99.90
29341;DHT22;16337;59.536;13.468;2023-10-13T05:10:24;0.20;99.90
29341;DHT22;16337;59.536;13.468;2023-10-13T05:13:09;0.20;99.90
29341;DHT22;16337;59.536;13.468;2023-10-13T05:15:56;0.30;99.90
29341;DHT22;16337;59.536;13.468;2023-10-13T05:18:40;0.40;99.90
29341;DHT22;16337;59.536;13.468;2023-10-13T05:21:24;0.50;99.90
29341;DHT22;16337;59.536;13.468;2023-10-13T05:24:08;0.60;99.90
29341;DHT22;16337;59.536;13.468;2023-10-13T05:26:56;0.70;99.90
29341;DHT22;16337;59.536;13.468;2023-10-13T05:30:00;0.70;99.90
29341;DHT22;16337;59.536;13.468;2023-10-13T05:32:45;0.90;99.90
29341;DHT22;16337;59.536;13.468;2023-10-13T05:35:31;1.00;99.90
29341;DHT22;16337;59.536;13.468;2023-10-13T05:38:15;1.00;99.90
29341;DHT22;16337;59.536;13.468;2023-10-13T05:41:07;1.10;99.90
29341;DHT22;16337;59.536;13.468;2023-10-13T05:43:52;1.10;99.90
29341;DHT22;16337;59.536;13.468;2023-10-13T05:46:37;1.20;99.90
29341;DHT22;16337;59.536;13.468;2023-10-13T05:49:07;1.20;99.90
29341;DHT22;16337;59.536;13.468;2023-10-13T05:51:44;1.30;99.90
29341;DHT22;16337;59.536;13.468;2023-10-13T05:54:32;1.30;99.90
29341;DHT22;16337;59.536;13.468;2023-10-13T05:57:16;1.40;99.90
29341;DHT22;16337;59.536;13.468;2023-10-13T06:00:00;1.50;99.90
29341;DHT22;16337;59.536;13.468;2023-10-13T06:02:44;1.50;99.90
29341;DHT22;16337;59.536;13.468;2023-10-13T06:05:29;1.50;99.90
29341;DHT22;16337;59.536;13.468;2023-10-13T06:08:13;1.60;99.90
29341;DHT22;16337;59.536;13.468;2023-10-13T06:11:01;1.60;99.90
29341;DHT22;16337;59.536;13.468;2023-10-13T06:13:47;1.70;99.90
29341;DHT22;16337;59.536;13.468;2023-10-13T06:16:31;1.80;99.90
29341;DHT22;16337;59.536;13.468;2023-10-13T06:19:15;1.80;99.90
29341;DHT22;16337;59.536;13.468;2023-10-13T06:21:59;1.90;99.90
29341;DHT22;16337;59.536;13.468;2023-10-13T06:24:44;2.00;99.90
29341;DHT22;16337;59.536;13.468;2023-10-13T06:27:28;2.00;99.90
29341;DHT22;16337;59.536;13.468;2023-10-13T06:30:12;2.10;99.90
29341;DHT22;16337;59.536;13.468;2023-10-13T06:32:38;2.20;99.90
29341;DHT22;16337;59.536;13.468;2023-10-13T06:35:07;2.30;99.90
29341;DHT22;16337;59.536;13.468;2023-10-13T06:37:33;2.40;99.90
29341;DHT22;16337;59.536;13.468;2023-10-13T06:40:08;2.50;99.90
29341;DHT22;16337;59.536;13.468;2023-10-13T06:42:56;2.50;99.90
29341;DHT22;16337;59.536;13.468;2023-10-13T06:45:37;2.60;99.90
29341;DHT22;16337;59.536;13.468;2023-10-13T06:48:03;2.70;99.90
29341;DHT22;16337;59.536;13.468;2023-10-13T06:50:30;2.70;99.90
29341;DHT22;16337;59.536;13.468;2023-10-13T06:53:07;2.80;99.90
29341;DHT22;16337;59.536;13.468;2023-10-13T06:55:37;2.90;99.90
29341;DHT22;16337;59.536;13.468;2023-10-13T06:58:06;3.00;99.90
29341;DHT22;16337;59.536;13.468;2023-10-13T07:00:32;3.10;99.90
29341;DHT22;16337;59.536;13.468;2023-10-13T07:03:04;3.20;99.90
29341;DHT22;16337;59.536;13.468;2023-10-13T07:05:38;3.30;99.90
29341;DHT22;16337;59.536;13.468;2023-10-13T07:08:08;3.40;99.90
29341;DHT22;16337;59.536;13.468;2023-10-13T07:10:37;3.50;99.90
29341;DHT22;16337;59.536;13.468;2023-10-13T07:13:17;3.60;99.90
29341;DHT22;16337;59.536;13.468;2023-10-13T07:15:48;3.70;99.90
29341;DHT22;16337;59.536;13.468;2023-10-13T07:18:16;3.80;99.90
29341;DHT22;16337;59.536;13.468;2023-10-13T07:20:48;3.90;99.90
29341;DHT22;16337;59.536;13.468;2023-10-13T07:23:14;4.00;99.90
29341;DHT22;16337;59.536;13.468;2023-10-13T07:25:56;4.10;99.90
29341;DHT22;16337;59.536;13.468;2023-10-13T07:28:32;4.20;99.90
29341;DHT22;16337;59.536;13.468;2023-10-13T07:31:02;4.30;99.90
29341;DHT22;16337;59.536;13.468;2023-10-13T07:33:28;4.40;99.90
29341;DHT22;16337;59.536;13.468;2023-10-13T07:36:04;4.50;99.90
29341;DHT22;16337;59.536;13.468;2023-10-13T07:38:56;4.60;99.90
29341;DHT22;16337;59.536;13.468;2023-10-13T07:41:47;4.70;99.90
29341;DHT22;16337;59.536;13.468;2023-10-13T07:44:29;4.90;99.90
29341;DHT22;16337;59.536;13.468;2023-10-13T07:47:01;5.00;99.90
29341;DHT22;16337;59.536;13.468;2023-10-13T07:49:40;5.10;99.90
29341;DHT22;16337;59.536;13.468;2023-10-13T07:52:10;5.20;99.90
29341;DHT22;16337;59.536;13.468;2023-10-13T07:54:46;5.40;99.90
29341;DHT22;16337;59.536;13.468;2023-10-13T07:57:17;5.50;99.90
29341;DHT22;16337;59.536;13.468;2023-10-13T07:59:44;5.60;99.90
29341;DHT22;16337;59.536;13.468;2023-10-13T08:02:19;5.70;99.90
29341;DHT22;16337;59.536;13.468;2023-10-13T08:05:08;5.80;99.90
29341;DHT22;16337;59.536;13.468;2023-10-13T08:07:34;5.90;99.90
29341;DHT22;16337;59.536;13.468;2023-10-13T08:10:05;6.10;99.90
29341;DHT22;16337;59.536;13.468;2023-10-13T08:12:35;6.20;99.90
29341;DHT22;16337;59.536;13.468;2023-10-13T08:15:03;6.30;99.90
29341;DHT22;16337;59.536;13.468;2023-10-13T08:17:52;6.50;99.90
29341;DHT22;16337;59.536;13.468;2023-10-13T08:20:20;6.60;99.90
29341;DHT22;16337;59.536;13.468;2023-10-13T08:22:47;6.80;99.90
29341;DHT22;16337;59.536;13.468;2023-10-13T08:25:17;7.00;99.90
29341;DHT22;16337;59.536;13.468;2023-10-13T08:28:11;7.10;99.90
29341;DHT22;16337;59.536;13.468;2023-10-13T08:31:05;7.30;99.90
29341;DHT22;16337;59.536;13.468;2023-10-13T08:33:50;7.40;99.90
29341;DHT22;16337;59.536;13.468;2023-10-13T08:36:45;7.60;99.90
29341;DHT22;16337;59.536;13.468;2023-10-13T08:39:08;7.70;99.90
29341;DHT22;16337;59.536;13.468;2023-10-13T08:42:09;7.80;99.90
29341;DHT22;16337;59.536;13.468;2023-10-13T08:44:44;7.70;99.90
29341;DHT22;16337;59.536;13.468;2023-10-13T08:47:15;7.70;99.90
29341;DHT22;16337;59.536;13.468;2023-10-13T08:49:45;7.60;99.90
29341;DHT22;16337;59.536;13.468;2023-10-13T08:52:17;7.50;99.90
29341;DHT22;16337;59.536;13.468;2023-10-13T08:55:05;7.50;99.90
29341;DHT22;16337;59.536;13.468;2023-10-13T08:57:49;7.50;99.90
29341;DHT22;16337;59.536;13.468;2023-10-13T09:00:19;7.50;99.90
29341;DHT22;16337;59.536;13.468;2023-10-13T09:03:05;7.60;99.90
29341;DHT22;16337;59.536;13.468;2023-10-13T09:05:51;7.60;99.90
29341;DHT22;16337;59.536;13.468;2023-10-13T09:08:32;7.60;99.90
29341;DHT22;16337;59.536;13.468;2023-10-13T09:11:04;7.70;99.90
29341;DHT22;16337;59.536;13.468;2023-10-13T09:13:39;7.70;99.90
29341;DHT22;16337;59.536;13.468;2023-10-13T09:16:11;7.80;99.90
29341;DHT22;16337;59.536;13.468;2023-10-13T09:18:42;7.90;99.90
29341;DHT22;16337;59.536;13.468;2023-10-13T09:21:12;7.90;99.90
29341;DHT22;16337;59.536;13.468;2023-10-13T09:24:18;8.00;99.90
29341;DHT22;16337;59.536;13.468;2023-10-13T09:26:54;8.00;99.90
29341;DHT22;16337;59.536;13.468;2023-10-13T09:29:20;8.10;99.90
29341;DHT22;16337;59.536;13.468;2023-10-13T09:31:47;8.10;99.90
29341;DHT22;16337;59.536;13.468;2023-10-13T09:34:21;8.20;99.90
29341;DHT22;16337;59.536;13.468;2023-10-13T09:37:00;8.40;99.90
29341;DHT22;16337;59.536;13.468;2023-10-13T09:39:29;8.50;99.90
29341;DHT22;16337;59.536;13.468;2023-10-13T09:41:56;8.70;99.90
29341;DHT22;16337;59.536;13.468;2023-10-13T09:44:26;9.00;99.90
29341;DHT22;16337;59.536;13.468;2023-10-13T09:47:00;9.30;99.90
29341;DHT22;16337;59.536;13.468;2023-10-13T09:49:39;9.60;99.90
29341;DHT22;16337;59.536;13.468;2023-10-13T09:52:15;9.80;99.90
29341;DHT22;16337;59.536;13.468;2023-10-13T09:55:05;10.00;99.90
29341;DHT22;16337;59.536;13.468;2023-10-13T09:57:47;10.10;99.90
29341;DHT22;16337;59.536;13.468;2023-10-13T10:00:19;10.30;99.90
29341;DHT22;16337;59.536;13.468;2023-10-13T10:03:08;10.30;99.90
29341;DHT22;16337;59.536;13.468;2023-10-13T10:05:55;10.50;99.90
29341;DHT22;16337;59.536;13.468;2023-10-13T10:08:29;10.70;99.90
29341;DHT22;16337;59.536;13.468;2023-10-13T10:16:22;11.10;99.90
29341;DHT22;16337;59.536;13.468;2023-10-13T10:19:02;11.40;99.90
29341;DHT22;16337;59.536;13.468;2023-10-13T10:21:35;11.50;99.90
29341;DHT22;16337;59.536;13.468;2023-10-13T10:24:01;11.40;99.90
29341;DHT22;16337;59.536;13.468;2023-10-13T10:26:49;11.50;99.90
29341;DHT22;16337;59.536;13.468;2023-10-13T10:29:17;11.50;99.90
29341;DHT22;16337;59.536;13.468;2023-10-13T10:31:45;11.50;99.90
29341;DHT22;16337;59.536;13.468;2023-10-13T10:34:15;11.50;99.90
29341;DHT22;16337;59.536;13.468;2023-10-13T10:36:47;11.60;99.90
29341;DHT22;16337;59.536;13.468;2023-10-13T10:39:15;11.60;99.90
29341;DHT22;16337;59.536;13.468;2023-10-13T10:41:43;11.60;99.90
29341;DHT22;16337;59.536;13.468;2023-10-13T10:44:12;11.60;99.90
29341;DHT22;16337;59.536;13.468;2023-10-13T10:46:42;11.70;99.90
29341;DHT22;16337;59.536;13.468;2023-10-13T10:49:20;11.60;99.90
29341;DHT22;16337;59.536;13.468;2023-10-13T10:51:57;11.50;99.90
29341;DHT22;16337;59.536;13.468;2023-10-13T10:54:33;11.60;99.90
29341;DHT22;16337;59.536;13.468;2023-10-13T10:56:59;11.60;99.90
29341;DHT22;16337;59.536;13.468;2023-10-13T10:59:37;11.60;99.90
29341;DHT22;16337;59.536;13.468;2023-10-13T11:02:03;11.60;99.90
29341;DHT22;16337;59.536;13.468;2023-10-13T11:04:29;11.60;99.90
29341;DHT22;16337;59.536;13.468;2023-10-13T11:07:25;11.60;99.90
29341;DHT22;16337;59.536;13.468;2023-10-13T11:10:06;11.70;99.90
29341;DHT22;16337;59.536;13.468;2023-10-13T11:12:39;11.80;99.90
29341;DHT22;16337;59.536;13.468;2023-10-13T11:15:08;11.80;99.90
29341;DHT22;16337;59.536;13.468;2023-10-13T11:17:59;11.90;99.90
29341;DHT22;16337;59.536;13.468;2023-10-13T11:20:27;12.00;99.90
29341;DHT22;16337;59.536;13.468;2023-10-13T11:22:59;11.90;99.90
29341;DHT22;16337;59.536;13.468;2023-10-13T11:25:30;11.90;99.90
29341;DHT22;16337;59.536;13.468;2023-10-13T11:30:44;11.90;99.90
29341;DHT22;16337;59.536;13.468;2023-10-13T11:33:15;12.00;99.90
29341;DHT22;16337;59.536;13.468;2023-10-13T11:35:44;11.90;99.90
29341;DHT22;16337;59.536;13.468;2023-10-13T11:38:36;11.90;99.90
29341;DHT22;16337;59.536;13.468;2023-10-13T11:41:16;11.80;99.90
29341;DHT22;16337;59.536;13.468;2023-10-13T11:43:44;11.80;99.90
29341;DHT22;16337;59.536;13.468;2023-10-13T11:46:20;11.80;99.90
29341;DHT22;16337;59.536;13.468;2023-10-13T11:49:05;11.80;99.90
29341;DHT22;16337;59.536;13.468;2023-10-13T11:51:47;11.80;99.90
29341;DHT22;16337;59.536;13.468;2023-10-13T11:54:17;11.70;99.90
29341;DHT22;16337;59.536;13.468;2023-10-13T11:56:48;11.70;99.90
29341;DHT22;16337;59.536;13.468;2023-10-13T11:59:14;11.60;99.90
29341;DHT22;16337;59.536;13.468;2023-10-13T12:01:52;11.60;99.90
29341;DHT22;16337;59.536;13.468;2023-10-13T12:04:39;11.60;99.90
29341;DHT22;16337;59.536;13.468;2023-10-13T12:07:18;11.50;99.90
29341;DHT22;16337;59.536;13.468;2023-10-13T12:09:51;11.50;99.90
29341;DHT22;16337;59.536;13.468;2023-10-13T12:12:20;11.50;99.90
29341;DHT22;16337;59.536;13.468;2023-10-13T12:14:45;11.50;99.90
29341;DHT22;16337;59.536;13.468;2023-10-13T12:17:26;11.40;99.90
29341;DHT22;16337;59.536;13.468;2023-10-13T12:20:06;11.50;99.90
29341;DHT22;16337;59.536;13.468;2023-10-13T12:22:38;11.50;99.90
29341;DHT22;16337;59.536;13.468;2023-10-13T12:25:08;11.50;99.90
29341;DHT22;16337;59.536;13.468;2023-10-13T12:27:54;11.50;99.90
29341;DHT22;16337;59.536;13.468;2023-10-13T12:30:24;11.40;99.90
29341;DHT22;16337;59.536;13.468;2023-10-13T12:33:15;11.50;99.90
29341;DHT22;16337;59.536;13.468;2023-10-13T12:38:44;11.40;99.90
29341;DHT22;16337;59.536;13.468;2023-10-13T12:41:18;11.30;99.90
29341;DHT22;16337;59.536;13.468;2023-10-13T12:44:04;11.30;99.90
29341;DHT22;16337;59.536;13.468;2023-10-13T12:46:48;11.30;99.90
29341;DHT22;16337;59.536;13.468;2023-10-13T12:49:33;11.30;99.90
29341;DHT22;16337;59.536;13.468;2023-10-13T12:52:09;11.20;99.90
29341;DHT22;16337;59.536;13.468;2023-10-13T12:54:57;11.20;99.90
29341;DHT22;16337;59.536;13.468;2023-10-13T12:57:27;11.10;99.90
29341;DHT22;16337;59.536;13.468;2023-10-13T12:59:54;11.10;99.90
29341;DHT22;16337;59.536;13.468;2023-10-13T13:02:30;11.10;99.90
29341;DHT22;16337;59.536;13.468;2023-10-13T13:05:00;11.00;99.90
29341;DHT22;16337;59.536;13.468;2023-10-13T13:07:38;11.00;99.90
29341;DHT22;16337;59.536;13.468;2023-10-13T13:10:16;11.00;99.90
29341;DHT22;16337;59.536;13.468;2023-10-13T13:12:44;11.00;99.90
29341;DHT22;16337;59.536;13.468;2023-10-13T13:15:10;11.00;99.90
29341;DHT22;16337;59.536;13.468;2023-10-13T13:17:38;10.90;99.90
29341;DHT22;16337;59.536;13.468;2023-10-13T13:20:08;10.90;99.90
29341;DHT22;16337;59.536;13.468;2023-10-13T13:22:55;11.00;99.90
29341;DHT22;16337;59.536;13.468;2023-10-13T13:25:27;10.90;99.90
29341;DHT22;16337;59.536;13.468;2023-10-13T13:27:56;10.90;99.90
29341;DHT22;16337;59.536;13.468;2023-10-13T13:30:24;10.90;99.90
29341;DHT22;16337;59.536;13.468;2023-10-13T13:32:58;10.90;99.90
29341;DHT22;16337;59.536;13.468;2023-10-13T13:35:29;10.90;99.90
29341;DHT22;16337;59.536;13.468;2023-10-13T13:38:01;10.90;99.90
29341;DHT22;16337;59.536;13.468;2023-10-13T13:40:38;10.90;99.90
29341;DHT22;16337;59.536;13.468;2023-10-13T13:43:05;11.00;99.90
29341;DHT22;16337;59.536;13.468;2023-10-13T13:45:32;10.90;99.90
29341;DHT22;16337;59.536;13.468;2023-10-13T13:48:00;10.90;99.90
29341;DHT22;16337;59.536;13.468;2023-10-13T13:50:33;10.80;99.90
29341;DHT22;16337;59.536;13.468;2023-10-13T13:53:05;10.80;99.90
29341;DHT22;16337;59.536;13.468;2023-10-13T13:55:34;10.80;99.90
29341;DHT22;16337;59.536;13.468;2023-10-13T13:58:00;10.70;99.90
29341;DHT22;16337;59.536;13.468;2023-10-13T14:00:27;10.70;99.90
29341;DHT22;16337;59.536;13.468;2023-10-13T14:03:06;10.80;99.90
29341;DHT22;16337;59.536;13.468;2023-10-13T14:05:51;10.80;99.90
29341;DHT22;16337;59.536;13.468;2023-10-13T14:08:16;10.70;99.90
29341;DHT22;16337;59.536;13.468;2023-10-13T14:10:42;10.70;99.90
29341;DHT22;16337;59.536;13.468;2023-10-13T14:13:26;10.70;99.90
29341;DHT22;16337;59.536;13.468;2023-10-13T14:16:12;10.70;99.90
29341;DHT22;16337;59.536;13.468;2023-10-13T14:18:46;10.70;99.90
29341;DHT22;16337;59.536;13.468;2023-10-13T14:21:12;10.70;99.90
29341;DHT22;16337;59.536;13.468;2023-10-13T14:23:49;10.60;99.90
29341;DHT22;16337;59.536;13.468;2023-10-13T14:26:18;10.60;99.90
29341;DHT22;16337;59.536;13.468;2023-10-13T14:28:52;10.60;99.90
29341;DHT22;16337;59.536;13.468;2023-10-13T14:31:29;10.60;99.90
29341;DHT22;16337;59.536;13.468;2023-10-13T14:33:55;10.50;99.90
29341;DHT22;16337;59.536;13.468;2023-10-13T14:36:22;10.40;99.90
29341;DHT22;16337;59.536;13.468;2023-10-13T14:38:48;10.40;99.90
29341;DHT22;16337;59.536;13.468;2023-10-13T14:41:21;10.30;99.90
29341;DHT22;16337;59.536;13.468;2023-10-13T14:43:50;10.20;99.90
29341;DHT22;16337;59.536;13.468;2023-10-13T14:46:16;10.00;99.90
29341;DHT22;16337;59.536;13.468;2023-10-13T14:48:45;9.90;99.90
29341;DHT22;16337;59.536;13.468;2023-10-13T14:51:14;9.70;99.90
29341;DHT22;16337;59.536;13.468;2023-10-13T14:53:42;9.60;99.90
29341;DHT22;16337;59.536;13.468;2023-10-13T14:56:12;9.40;99.90
29341;DHT22;16337;59.536;13.468;2023-10-13T14:58:39;9.40;99.90
29341;DHT22;16337;59.536;13.468;2023-10-13T15:01:14;9.30;99.90
29341;DHT22;16337;59.536;13.468;2023-10-13T15:03:43;9.20;99.90
29341;DHT22;16337;59.536;13.468;2023-10-13T15:06:19;9.20;99.90
29341;DHT22;16337;59.536;13.468;2023-10-13T15:08:52;9.10;99.90
29341;DHT22;16337;59.536;13.468;2023-10-13T15:11:26;9.10;99.90
29341;DHT22;16337;59.536;13.468;2023-10-13T15:13:55;9.00;99.90
29341;DHT22;16337;59.536;13.468;2023-10-13T15:16:23;9.00;99.90
29341;DHT22;16337;59.536;13.468;2023-10-13T15:18:55;9.00;99.90
29341;DHT22;16337;59.536;13.468;2023-10-13T15:21:25;8.90;99.90
29341;DHT22;16337;59.536;13.468;2023-10-13T15:24:00;8.90;99.90
29341;DHT22;16337;59.536;13.468;2023-10-13T15:26:32;8.90;99.90
29341;DHT22;16337;59.536;13.468;2023-10-13T15:29:06;8.80;99.90
29341;DHT22;16337;59.536;13.468;2023-10-13T15:31:35;8.80;99.90
29341;DHT22;16337;59.536;13.468;2023-10-13T15:34:01;8.80;99.90
29341;DHT22;16337;59.536;13.468;2023-10-13T15:36:42;8.70;99.90
29341;DHT22;16337;59.536;13.468;2023-10-13T15:39:09;8.70;99.90
29341;DHT22;16337;59.536;13.468;2023-10-13T15:41:36;8.70;99.90
29341;DHT22;16337;59.536;13.468;2023-10-13T15:44:05;8.70;99.90
29341;DHT22;16337;59.536;13.468;2023-10-13T15:46:36;8.70;99.90
29341;DHT22;16337;59.536;13.468;2023-10-13T15:49:02;8.60;99.90
29341;DHT22;16337;59.536;13.468;2023-10-13T15:51:34;8.50;99.90
29341;DHT22;16337;59.536;13.468;2023-10-13T15:54:02;8.50;99.90
29341;DHT22;16337;59.536;13.468;2023-10-13T15:56:29;8.50;99.90
29341;DHT22;16337;59.536;13.468;2023-10-13T15:59:00;8.40;99.90
29341;DHT22;16337;59.536;13.468;2023-10-13T16:01:35;8.40;99.90
29341;DHT22;16337;59.536;13.468;2023-10-13T16:04:00;8.40;99.90
29341;DHT22;16337;59.536;13.468;2023-10-13T16:06:43;8.40;99.90
29341;DHT22;16337;59.536;13.468;2023-10-13T16:09:15;8.30;99.90
29341;DHT22;16337;59.536;13.468;2023-10-13T16:11:44;8.30;99.90
29341;DHT22;16337;59.536;13.468;2023-10-13T16:14:11;8.20;99.90
29341;DHT22;16337;59.536;13.468;2023-10-13T16:16:43;8.20;99.90
29341;DHT22;16337;59.536;13.468;2023-10-13T16:19:38;8.10;99.90
29341;DHT22;16337;59.536;13.468;2023-10-13T16:22:12;8.10;99.90
29341;DHT22;16337;59.536;13.468;2023-10-13T16:24:37;8.10;99.90
29341;DHT22;16337;59.536;13.468;2023-10-13T16:27:03;8.00;99.90